sensor_id;sensor_type;location;lat;lon;timestamp;P1;durP1;ratioP1;P2;durP2;ratioP2
76576;SDS011;65441;44.748;37.600;2023-06-19T00:00:09;7.65;;;2.97;;
76576;SDS011;65441;44.748;37.600;2023-06-19T00:02:43;11.48;;;3.42;;
76576;SDS011;65441;44.748;37.600;2023-06-19T00:05:12;11.10;;;3.47;;
76576;SDS011;65441;44.748;37.600;2023-06-19T00:07:42;9.77;;;3.00;;
76576;SDS011;65441;44.748;37.600;2023-06-19T00:10:11;11.48;;;3.33;;
76576;SDS011;65441;44.748;37.600;2023-06-19T00:12:41;9.70;;;3.63;;
76576;SDS011;65441;44.748;37.600;2023-06-19T00:15:12;9.35;;;3.92;;
76576;SDS011;65441;44.748;37.600;2023-06-19T00:17:43;9.00;;;3.88;;
76576;SDS011;65441;44.748;37.600;2023-06-19T00:20:12;9.38;;;4.00;;
76576;SDS011;65441;44.748;37.600;2023-06-19T00:22:41;11.27;;;4.10;;
76576;SDS011;65441;44.748;37.600;2023-06-19T00:25:11;9.55;;;3.80;;
76576;SDS011;65441;44.748;37.600;2023-06-19T00:27:42;9.50;;;3.92;;
76576;SDS011;65441;44.748;37.600;2023-06-19T00:30:13;7.32;;;3.60;;
76576;SDS011;65441;44.748;37.600;2023-06-19T00:32:43;11.20;;;3.55;;
76576;SDS011;65441;44.748;37.600;2023-06-19T00:35:17;7.95;;;3.55;;
76576;SDS011;65441;44.748;37.600;2023-06-19T00:37:48;9.23;;;4.50;;
76576;SDS011;65441;44.748;37.600;2023-06-19T00:40:19;9.35;;;3.55;;
76576;SDS011;65441;44.748;37.600;2023-06-19T00:42:55;9.35;;;3.35;;
76576;SDS011;65441;44.748;37.600;2023-06-19T00:45:26;13.38;;;3.92;;
76576;SDS011;65441;44.748;37.600;2023-06-19T00:47:57;8.13;;;3.67;;
76576;SDS011;65441;44.748;37.600;2023-06-19T00:50:28;7.90;;;3.42;;
76576;SDS011;65441;44.748;37.600;2023-06-19T00:52:58;9.50;;;3.70;;
76576;SDS011;65441;44.748;37.600;2023-06-19T00:55:29;11.68;;;3.85;;
76576;SDS011;65441;44.748;37.600;2023-06-19T00:58:00;10.10;;;3.63;;
76576;SDS011;65441;44.748;37.600;2023-06-19T01:00:31;11.40;;;3.75;;
76576;SDS011;65441;44.748;37.600;2023-06-19T01:03:00;11.95;;;4.22;;
76576;SDS011;65441;44.748;37.600;2023-06-19T01:05:30;10.23;;;3.83;;
76576;SDS011;65441;44.748;37.600;2023-06-19T01:08:00;8.18;;;3.35;;
76576;SDS011;65441;44.748;37.600;2023-06-19T01:10:38;10.82;;;4.15;;
76576;SDS011;65441;44.748;37.600;2023-06-19T01:13:12;8.15;;;3.58;;
76576;SDS011;65441;44.748;37.600;2023-06-19T01:15:49;7.85;;;3.35;;
76576;SDS011;65441;44.748;37.600;2023-06-19T01:18:19;12.02;;;3.67;;
76576;SDS011;65441;44.748;37.600;2023-06-19T01:20:49;9.35;;;3.90;;
76576;SDS011;65441;44.748;37.600;2023-06-19T01:23:20;8.05;;;3.88;;
76576;SDS011;65441;44.748;37.600;2023-06-19T01:25:49;9.45;;;3.67;;
76576;SDS011;65441;44.748;37.600;2023-06-19T01:28:18;9.50;;;3.60;;
76576;SDS011;65441;44.748;37.600;2023-06-19T01:30:48;10.27;;;3.70;;
76576;SDS011;65441;44.748;37.600;2023-06-19T01:33:18;9.20;;;4.03;;
76576;SDS011;65441;44.748;37.600;2023-06-19T01:35:52;9.65;;;3.53;;
76576;SDS011;65441;44.748;37.600;2023-06-19T01:38:25;9.90;;;4.05;;
76576;SDS011;65441;44.748;37.600;2023-06-19T01:40:58;10.35;;;3.65;;
76576;SDS011;65441;44.748;37.600;2023-06-19T01:43:33;7.53;;;3.30;;
76576;SDS011;65441;44.748;37.600;2023-06-19T01:46:02;9.13;;;3.47;;
76576;SDS011;65441;44.748;37.600;2023-06-19T01:48:31;9.55;;;3.78;;
76576;SDS011;65441;44.748;37.600;2023-06-19T01:51:01;8.77;;;3.63;;
76576;SDS011;65441;44.748;37.600;2023-06-19T01:53:34;14.25;;;4.30;;
76576;SDS011;65441;44.748;37.600;2023-06-19T01:56:03;7.43;;;3.22;;
76576;SDS011;65441;44.748;37.600;2023-06-19T01:58:33;12.20;;;3.67;;
76576;SDS011;65441;44.748;37.600;2023-06-19T02:01:02;9.55;;;3.53;;
76576;SDS011;65441;44.748;37.600;2023-06-19T02:03:31;9.60;;;3.80;;
76576;SDS011;65441;44.748;37.600;2023-06-19T02:06:00;10.45;;;4.53;;
76576;SDS011;65441;44.748;37.600;2023-06-19T02:08:30;8.25;;;3.97;;
76576;SDS011;65441;44.748;37.600;2023-06-19T02:11:00;10.18;;;3.67;;
76576;SDS011;65441;44.748;37.600;2023-06-19T02:13:29;10.90;;;3.75;;
76576;SDS011;65441;44.748;37.600;2023-06-19T02:15:58;11.40;;;4.35;;
76576;SDS011;65441;44.748;37.600;2023-06-19T02:18:30;10.15;;;3.35;;
76576;SDS011;65441;44.748;37.600;2023-06-19T02:20:59;6.55;;;3.13;;
76576;SDS011;65441;44.748;37.600;2023-06-19T02:23:28;8.75;;;3.78;;
76576;SDS011;65441;44.748;37.600;2023-06-19T02:25:57;10.45;;;4.10;;
76576;SDS011;65441;44.748;37.600;2023-06-19T02:28:28;11.80;;;4.80;;
76576;SDS011;65441;44.748;37.600;2023-06-19T02:30:57;20.65;;;4.43;;
76576;SDS011;65441;44.748;37.600;2023-06-19T02:33:26;10.25;;;4.30;;
76576;SDS011;65441;44.748;37.600;2023-06-19T02:35:55;9.57;;;3.75;;
76576;SDS011;65441;44.748;37.600;2023-06-19T02:38:25;11.57;;;4.35;;
76576;SDS011;65441;44.748;37.600;2023-06-19T02:40:55;10.65;;;3.92;;
76576;SDS011;65441;44.748;37.600;2023-06-19T02:43:29;14.23;;;3.97;;
76576;SDS011;65441;44.748;37.600;2023-06-19T02:45:58;10.07;;;3.75;;
76576;SDS011;65441;44.748;37.600;2023-06-19T02:48:29;9.52;;;4.18;;
76576;SDS011;65441;44.748;37.600;2023-06-19T02:50:59;13.27;;;4.80;;
76576;SDS011;65441;44.748;37.600;2023-06-19T02:53:28;8.75;;;3.65;;
76576;SDS011;65441;44.748;37.600;2023-06-19T02:56:00;13.25;;;4.07;;
76576;SDS011;65441;44.748;37.600;2023-06-19T02:58:32;8.18;;;4.07;;
76576;SDS011;65441;44.748;37.600;2023-06-19T03:01:06;20.73;;;4.60;;
76576;SDS011;65441;44.748;37.600;2023-06-19T03:03:35;13.90;;;4.25;;
76576;SDS011;65441;44.748;37.600;2023-06-19T03:06:05;11.38;;;4.20;;
76576;SDS011;65441;44.748;37.600;2023-06-19T03:08:34;17.67;;;3.92;;
76576;SDS011;65441;44.748;37.600;2023-06-19T03:11:04;8.68;;;3.80;;
76576;SDS011;65441;44.748;37.600;2023-06-19T03:13:43;12.60;;;3.83;;
76576;SDS011;65441;44.748;37.600;2023-06-19T03:16:13;9.80;;;4.20;;
76576;SDS011;65441;44.748;37.600;2023-06-19T03:18:43;10.20;;;4.50;;
76576;SDS011;65441;44.748;37.600;2023-06-19T03:21:13;10.30;;;4.18;;
76576;SDS011;65441;44.748;37.600;2023-06-19T03:23:45;14.60;;;4.30;;
76576;SDS011;65441;44.748;37.600;2023-06-19T03:26:15;31.30;;;5.43;;
76576;SDS011;65441;44.748;37.600;2023-06-19T03:28:45;13.82;;;4.65;;
76576;SDS011;65441;44.748;37.600;2023-06-19T03:31:14;17.65;;;4.47;;
76576;SDS011;65441;44.748;37.600;2023-06-19T03:33:48;15.60;;;4.47;;
76576;SDS011;65441;44.748;37.600;2023-06-19T03:36:21;11.85;;;3.88;;
76576;SDS011;65441;44.748;37.600;2023-06-19T03:38:52;14.48;;;4.03;;
76576;SDS011;65441;44.748;37.600;2023-06-19T03:41:27;12.00;;;4.28;;
76576;SDS011;65441;44.748;37.600;2023-06-19T03:43:58;10.90;;;4.20;;
76576;SDS011;65441;44.748;37.600;2023-06-19T03:46:27;11.98;;;3.92;;
76576;SDS011;65441;44.748;37.600;2023-06-19T03:48:58;12.63;;;3.55;;
76576;SDS011;65441;44.748;37.600;2023-06-19T03:51:29;12.02;;;4.03;;
76576;SDS011;65441;44.748;37.600;2023-06-19T03:53:58;14.07;;;4.38;;
76576;SDS011;65441;44.748;37.600;2023-06-19T03:56:27;12.35;;;3.97;;
76576;SDS011;65441;44.748;37.600;2023-06-19T03:58:58;9.48;;;4.10;;
76576;SDS011;65441;44.748;37.600;2023-06-19T04:01:31;10.95;;;3.95;;
76576;SDS011;65441;44.748;37.600;2023-06-19T04:04:01;10.23;;;3.90;;
76576;SDS011;65441;44.748;37.600;2023-06-19T04:06:31;11.32;;;4.65;;
76576;SDS011;65441;44.748;37.600;2023-06-19T04:09:02;12.20;;;4.60;;
76576;SDS011;65441;44.748;37.600;2023-06-19T04:11:32;9.95;;;3.80;;
76576;SDS011;65441;44.748;37.600;2023-06-19T04:14:04;9.70;;;4.57;;
76576;SDS011;65441;44.748;37.600;2023-06-19T04:16:37;9.90;;;4.60;;
76576;SDS011;65441;44.748;37.600;2023-06-19T04:19:11;17.73;;;5.95;;
76576;SDS011;65441;44.748;37.600;2023-06-19T04:21:45;10.88;;;4.53;;
76576;SDS011;65441;44.748;37.600;2023-06-19T04:24:14;12.30;;;4.63;;
76576;SDS011;65441;44.748;37.600;2023-06-19T04:26:45;11.20;;;4.57;;
76576;SDS011;65441;44.748;37.600;2023-06-19T04:29:19;12.93;;;4.97;;
76576;SDS011;65441;44.748;37.600;2023-06-19T04:31:49;14.07;;;5.20;;
76576;SDS011;65441;44.748;37.600;2023-06-19T04:34:19;13.98;;;4.53;;
76576;SDS011;65441;44.748;37.600;2023-06-19T04:36:50;18.65;;;5.40;;
76576;SDS011;65441;44.748;37.600;2023-06-19T04:39:20;15.82;;;5.13;;
76576;SDS011;65441;44.748;37.600;2023-06-19T04:41:51;15.30;;;5.20;;
76576;SDS011;65441;44.748;37.600;2023-06-19T04:44:27;10.82;;;4.32;;
76576;SDS011;65441;44.748;37.600;2023-06-19T04:47:02;13.30;;;4.40;;
76576;SDS011;65441;44.748;37.600;2023-06-19T04:49:37;12.98;;;4.28;;
76576;SDS011;65441;44.748;37.600;2023-06-19T04:52:13;16.20;;;4.68;;
76576;SDS011;65441;44.748;37.600;2023-06-19T04:54:47;14.80;;;4.60;;
76576;SDS011;65441;44.748;37.600;2023-06-19T04:57:20;12.68;;;4.78;;
76576;SDS011;65441;44.748;37.600;2023-06-19T04:59:55;11.02;;;4.38;;
76576;SDS011;65441;44.748;37.600;2023-06-19T05:02:28;10.38;;;4.40;;
76576;SDS011;65441;44.748;37.600;2023-06-19T05:05:06;12.15;;;4.13;;
76576;SDS011;65441;44.748;37.600;2023-06-19T05:07:46;13.07;;;4.00;;
76576;SDS011;65441;44.748;37.600;2023-06-19T05:10:22;9.07;;;4.18;;
76576;SDS011;65441;44.748;37.600;2023-06-19T05:12:58;12.88;;;4.00;;
76576;SDS011;65441;44.748;37.600;2023-06-19T05:15:36;8.60;;;3.67;;
76576;SDS011;65441;44.748;37.600;2023-06-19T05:18:10;11.38;;;3.40;;
76576;SDS011;65441;44.748;37.600;2023-06-19T05:20:48;10.38;;;3.30;;
76576;SDS011;65441;44.748;37.600;2023-06-19T05:23:22;10.30;;;3.60;;
76576;SDS011;65441;44.748;37.600;2023-06-19T05:25:57;8.27;;;3.85;;
76576;SDS011;65441;44.748;37.600;2023-06-19T05:28:32;8.95;;;3.53;;
76576;SDS011;65441;44.748;37.600;2023-06-19T05:31:07;6.72;;;3.08;;
76576;SDS011;65441;44.748;37.600;2023-06-19T05:33:41;12.50;;;4.00;;
76576;SDS011;65441;44.748;37.600;2023-06-19T05:36:15;10.05;;;3.42;;
76576;SDS011;65441;44.748;37.600;2023-06-19T05:38:52;7.07;;;2.85;;
76576;SDS011;65441;44.748;37.600;2023-06-19T05:41:26;8.00;;;2.97;;
76576;SDS011;65441;44.748;37.600;2023-06-19T05:44:07;10.45;;;3.05;;
76576;SDS011;65441;44.748;37.600;2023-06-19T05:46:45;11.20;;;3.55;;
76576;SDS011;65441;44.748;37.600;2023-06-19T05:49:19;8.38;;;3.15;;
76576;SDS011;65441;44.748;37.600;2023-06-19T05:52:00;8.57;;;3.50;;
76576;SDS011;65441;44.748;37.600;2023-06-19T05:54:35;12.07;;;3.90;;
76576;SDS011;65441;44.748;37.600;2023-06-19T05:57:08;11.07;;;3.45;;
76576;SDS011;65441;44.748;37.600;2023-06-19T05:59:52;8.93;;;3.40;;
76576;SDS011;65441;44.748;37.600;2023-06-19T06:02:46;9.10;;;3.50;;
76576;SDS011;65441;44.748;37.600;2023-06-19T06:05:22;8.15;;;3.60;;
76576;SDS011;65441;44.748;37.600;2023-06-19T06:08:01;9.18;;;3.50;;
76576;SDS011;65441;44.748;37.600;2023-06-19T06:10:36;8.82;;;3.95;;
76576;SDS011;65441;44.748;37.600;2023-06-19T06:13:32;10.77;;;4.03;;
76576;SDS011;65441;44.748;37.600;2023-06-19T06:16:08;10.57;;;3.85;;
76576;SDS011;65441;44.748;37.600;2023-06-19T06:18:47;9.32;;;3.85;;
76576;SDS011;65441;44.748;37.600;2023-06-19T06:21:49;8.90;;;3.80;;
76576;SDS011;65441;44.748;37.600;2023-06-19T06:24:49;9.48;;;4.63;;
76576;SDS011;65441;44.748;37.600;2023-06-19T06:27:33;12.98;;;4.25;;
76576;SDS011;65441;44.748;37.600;2023-06-19T06:30:14;11.27;;;4.43;;
76576;SDS011;65441;44.748;37.600;2023-06-19T06:32:50;8.98;;;4.50;;
76576;SDS011;65441;44.748;37.600;2023-06-19T06:35:26;8.60;;;4.15;;
76576;SDS011;65441;44.748;37.600;2023-06-19T06:38:52;9.27;;;4.38;;
76576;SDS011;65441;44.748;37.600;2023-06-19T06:41:17;10.00;;;5.10;;
76576;SDS011;65441;44.748;37.600;2023-06-19T06:44:18;9.18;;;4.03;;
76576;SDS011;65441;44.748;37.600;2023-06-19T06:47:54;10.27;;;4.30;;
76576;SDS011;65441;44.748;37.600;2023-06-19T06:50:02;9.80;;;3.83;;
76576;SDS011;65441;44.748;37.600;2023-06-19T06:53:02;8.50;;;4.10;;
76576;SDS011;65441;44.748;37.600;2023-06-19T06:56:14;11.18;;;4.13;;
76576;SDS011;65441;44.748;37.600;2023-06-19T06:59:26;7.80;;;3.95;;
76576;SDS011;65441;44.748;37.600;2023-06-19T07:03:20;8.32;;;3.90;;
76576;SDS011;65441;44.748;37.600;2023-06-19T07:05:33;9.02;;;3.60;;
76576;SDS011;65441;44.748;37.600;2023-06-19T07:08:07;8.02;;;3.67;;
76576;SDS011;65441;44.748;37.600;2023-06-19T07:10:39;8.18;;;3.45;;
76576;SDS011;65441;44.748;37.600;2023-06-19T07:13:13;8.10;;;3.85;;
76576;SDS011;65441;44.748;37.600;2023-06-19T07:15:44;9.77;;;3.30;;
76576;SDS011;65441;44.748;37.600;2023-06-19T07:18:36;7.70;;;3.13;;
76576;SDS011;65441;44.748;37.600;2023-06-19T07:21:30;9.30;;;3.45;;
76576;SDS011;65441;44.748;37.600;2023-06-19T07:24:08;9.35;;;2.90;;
76576;SDS011;65441;44.748;37.600;2023-06-19T07:26:47;10.57;;;3.58;;
76576;SDS011;65441;44.748;37.600;2023-06-19T07:29:23;11.38;;;4.18;;
76576;SDS011;65441;44.748;37.600;2023-06-19T07:32:23;8.93;;;3.83;;
76576;SDS011;65441;44.748;37.600;2023-06-19T07:35:59;7.30;;;3.58;;
76576;SDS011;65441;44.748;37.600;2023-06-19T07:38:24;11.18;;;4.13;;
76576;SDS011;65441;44.748;37.600;2023-06-19T07:41:21;10.45;;;3.63;;
76576;SDS011;65441;44.748;37.600;2023-06-19T07:44:34;8.90;;;3.60;;
76576;SDS011;65441;44.748;37.600;2023-06-19T07:47:17;7.55;;;3.92;;
76576;SDS011;65441;44.748;37.600;2023-06-19T07:52:44;8.43;;;3.95;;
76576;SDS011;65441;44.748;37.600;2023-06-19T07:56:05;12.88;;;4.07;;
76576;SDS011;65441;44.748;37.600;2023-06-19T07:58:27;8.05;;;3.45;;
76576;SDS011;65441;44.748;37.600;2023-06-19T08:01:06;7.63;;;2.97;;
76576;SDS011;65441;44.748;37.600;2023-06-19T08:03:59;8.23;;;2.35;;
76576;SDS011;65441;44.748;37.600;2023-06-19T08:06:44;5.82;;;2.30;;
76576;SDS011;65441;44.748;37.600;2023-06-19T08:09:23;10.63;;;2.42;;
76576;SDS011;65441;44.748;37.600;2023-06-19T08:14:49;10.23;;;2.67;;
76576;SDS011;65441;44.748;37.600;2023-06-19T08:17:22;9.57;;;3.90;;
76576;SDS011;65441;44.748;37.600;2023-06-19T08:20:15;9.45;;;4.18;;
76576;SDS011;65441;44.748;37.600;2023-06-19T08:22:48;11.05;;;4.03;;
76576;SDS011;65441;44.748;37.600;2023-06-19T08:25:18;11.63;;;4.00;;
76576;SDS011;65441;44.748;37.600;2023-06-19T08:27:47;9.52;;;3.40;;
76576;SDS011;65441;44.748;37.600;2023-06-19T08:30:20;11.15;;;3.85;;
76576;SDS011;65441;44.748;37.600;2023-06-19T08:32:53;10.13;;;3.70;;
76576;SDS011;65441;44.748;37.600;2023-06-19T08:35:30;10.65;;;3.88;;
76576;SDS011;65441;44.748;37.600;2023-06-19T08:38:02;10.05;;;3.40;;
76576;SDS011;65441;44.748;37.600;2023-06-19T08:40:51;8.77;;;4.13;;
76576;SDS011;65441;44.748;37.600;2023-06-19T08:43:23;9.90;;;3.55;;
76576;SDS011;65441;44.748;37.600;2023-06-19T08:45:59;9.80;;;3.35;;
76576;SDS011;65441;44.748;37.600;2023-06-19T08:51:31;8.52;;;3.88;;
76576;SDS011;65441;44.748;37.600;2023-06-19T08:59:50;10.40;;;3.30;;
76576;SDS011;65441;44.748;37.600;2023-06-19T09:02:45;7.40;;;2.90;;
76576;SDS011;65441;44.748;37.600;2023-06-19T09:05:19;9.40;;;3.25;;
76576;SDS011;65441;44.748;37.600;2023-06-19T09:07:59;9.98;;;2.90;;
76576;SDS011;65441;44.748;37.600;2023-06-19T09:10:39;11.55;;;2.65;;
76576;SDS011;65441;44.748;37.600;2023-06-19T09:13:13;7.10;;;3.10;;
76576;SDS011;65441;44.748;37.600;2023-06-19T09:21:24;9.88;;;3.20;;
76576;SDS011;65441;44.748;37.600;2023-06-19T09:24:15;8.27;;;2.80;;
76576;SDS011;65441;44.748;37.600;2023-06-19T09:26:47;9.20;;;2.92;;
76576;SDS011;65441;44.748;37.600;2023-06-19T09:32:27;6.95;;;3.08;;
76576;SDS011;65441;44.748;37.600;2023-06-19T09:35:01;29.77;;;3.30;;
76576;SDS011;65441;44.748;37.600;2023-06-19T09:37:31;28.33;;;3.70;;
76576;SDS011;65441;44.748;37.600;2023-06-19T09:45:54;14.60;;;4.05;;
76576;SDS011;65441;44.748;37.600;2023-06-19T09:48:44;10.32;;;3.88;;
76576;SDS011;65441;44.748;37.600;2023-06-19T09:51:37;9.38;;;3.15;;
76576;SDS011;65441;44.748;37.600;2023-06-19T09:54:44;10.75;;;3.15;;
76576;SDS011;65441;44.748;37.600;2023-06-19T09:57:14;13.70;;;3.70;;
76576;SDS011;65441;44.748;37.600;2023-06-19T09:59:43;6.72;;;2.17;;
76576;SDS011;65441;44.748;37.600;2023-06-19T10:02:49;7.53;;;2.25;;
76576;SDS011;65441;44.748;37.600;2023-06-19T10:05:27;12.13;;;2.22;;
76576;SDS011;65441;44.748;37.600;2023-06-19T10:07:58;10.15;;;2.22;;
76576;SDS011;65441;44.748;37.600;2023-06-19T10:13:51;11.30;;;2.15;;
76576;SDS011;65441;44.748;37.600;2023-06-19T10:16:37;7.35;;;1.80;;
76576;SDS011;65441;44.748;37.600;2023-06-19T10:19:48;14.90;;;2.20;;
76576;SDS011;65441;44.748;37.600;2023-06-19T10:23:02;10.60;;;2.45;;
76576;SDS011;65441;44.748;37.600;2023-06-19T10:25:32;6.47;;;2.05;;
76576;SDS011;65441;44.748;37.600;2023-06-19T10:28:02;7.32;;;2.20;;
76576;SDS011;65441;44.748;37.600;2023-06-19T10:30:34;6.90;;;2.22;;
76576;SDS011;65441;44.748;37.600;2023-06-19T10:33:21;9.07;;;2.65;;
76576;SDS011;65441;44.748;37.600;2023-06-19T10:35:51;10.50;;;2.63;;
76576;SDS011;65441;44.748;37.600;2023-06-19T10:38:21;8.63;;;2.35;;
76576;SDS011;65441;44.748;37.600;2023-06-19T10:40:50;7.13;;;2.38;;
76576;SDS011;65441;44.748;37.600;2023-06-19T10:46:28;7.63;;;2.20;;
76576;SDS011;65441;44.748;37.600;2023-06-19T10:48:58;9.50;;;2.70;;
76576;SDS011;65441;44.748;37.600;2023-06-19T10:51:48;7.72;;;2.75;;
76576;SDS011;65441;44.748;37.600;2023-06-19T10:54:18;6.35;;;2.15;;
76576;SDS011;65441;44.748;37.600;2023-06-19T10:57:05;5.82;;;2.05;;
76576;SDS011;65441;44.748;37.600;2023-06-19T10:59:34;6.80;;;2.30;;
76576;SDS011;65441;44.748;37.600;2023-06-19T11:02:06;7.40;;;2.72;;
76576;SDS011;65441;44.748;37.600;2023-06-19T11:04:52;6.15;;;2.20;;
76576;SDS011;65441;44.748;37.600;2023-06-19T11:07:29;6.50;;;2.10;;
76576;SDS011;65441;44.748;37.600;2023-06-19T11:10:06;7.22;;;2.30;;
76576;SDS011;65441;44.748;37.600;2023-06-19T11:12:56;5.68;;;2.10;;
76576;SDS011;65441;44.748;37.600;2023-06-19T11:15:30;9.65;;;2.10;;
76576;SDS011;65441;44.748;37.600;2023-06-19T11:18:00;6.85;;;2.33;;
76576;SDS011;65441;44.748;37.600;2023-06-19T11:20:29;8.02;;;2.08;;
76576;SDS011;65441;44.748;37.600;2023-06-19T11:23:17;6.95;;;1.90;;
76576;SDS011;65441;44.748;37.600;2023-06-19T11:25:54;5.57;;;1.90;;
76576;SDS011;65441;44.748;37.600;2023-06-19T11:28:31;8.77;;;2.20;;
76576;SDS011;65441;44.748;37.600;2023-06-19T11:31:00;8.70;;;2.08;;
76576;SDS011;65441;44.748;37.600;2023-06-19T11:33:30;7.65;;;2.53;;
76576;SDS011;65441;44.748;37.600;2023-06-19T11:36:00;7.00;;;1.90;;
76576;SDS011;65441;44.748;37.600;2023-06-19T11:38:31;8.13;;;1.95;;
76576;SDS011;65441;44.748;37.600;2023-06-19T11:41:06;7.72;;;2.40;;
76576;SDS011;65441;44.748;37.600;2023-06-19T11:43:36;6.68;;;2.08;;
76576;SDS011;65441;44.748;37.600;2023-06-19T11:49:15;6.93;;;2.13;;
76576;SDS011;65441;44.748;37.600;2023-06-19T11:52:02;8.07;;;2.42;;
76576;SDS011;65441;44.748;37.600;2023-06-19T11:54:32;8.10;;;2.15;;
76576;SDS011;65441;44.748;37.600;2023-06-19T11:57:02;8.57;;;2.28;;
76576;SDS011;65441;44.748;37.600;2023-06-19T11:59:32;6.63;;;2.33;;
76576;SDS011;65441;44.748;37.600;2023-06-19T12:02:19;8.77;;;2.35;;
76576;SDS011;65441;44.748;37.600;2023-06-19T12:04:49;10.00;;;3.17;;
76576;SDS011;65441;44.748;37.600;2023-06-19T12:07:36;8.52;;;2.80;;
76576;SDS011;65441;44.748;37.600;2023-06-19T12:10:06;10.45;;;2.90;;
76576;SDS011;65441;44.748;37.600;2023-06-19T12:12:40;7.13;;;2.58;;
76576;SDS011;65441;44.748;37.600;2023-06-19T12:15:09;6.70;;;2.80;;
76576;SDS011;65441;44.748;37.600;2023-06-19T12:17:38;9.93;;;2.80;;
76576;SDS011;65441;44.748;37.600;2023-06-19T12:20:07;9.30;;;3.05;;
76576;SDS011;65441;44.748;37.600;2023-06-19T12:22:37;10.35;;;2.78;;
76576;SDS011;65441;44.748;37.600;2023-06-19T12:25:24;7.05;;;2.70;;
76576;SDS011;65441;44.748;37.600;2023-06-19T12:27:54;7.32;;;2.60;;
76576;SDS011;65441;44.748;37.600;2023-06-19T12:30:24;9.23;;;2.67;;
76576;SDS011;65441;44.748;37.600;2023-06-19T12:32:53;8.32;;;2.63;;
76576;SDS011;65441;44.748;37.600;2023-06-19T12:35:21;7.63;;;2.42;;
76576;SDS011;65441;44.748;37.600;2023-06-19T12:37:50;7.78;;;2.70;;
76576;SDS011;65441;44.748;37.600;2023-06-19T12:40:21;9.48;;;2.88;;
76576;SDS011;65441;44.748;37.600;2023-06-19T12:43:09;8.93;;;2.72;;
76576;SDS011;65441;44.748;37.600;2023-06-19T12:45:38;8.20;;;3.00;;
76576;SDS011;65441;44.748;37.600;2023-06-19T12:48:08;7.32;;;3.00;;
76576;SDS011;65441;44.748;37.600;2023-06-19T12:50:38;9.60;;;3.10;;
76576;SDS011;65441;44.748;37.600;2023-06-19T13:35:54;10.75;;;3.58;;
76576;SDS011;65441;44.748;37.600;2023-06-19T13:38:23;7.45;;;3.45;;
76576;SDS011;65441;44.748;37.600;2023-06-19T13:40:52;7.97;;;3.78;;
76576;SDS011;65441;44.748;37.600;2023-06-19T13:43:22;7.35;;;3.42;;
76576;SDS011;65441;44.748;37.600;2023-06-19T13:45:52;10.70;;;3.67;;
76576;SDS011;65441;44.748;37.600;2023-06-19T13:48:21;10.27;;;3.83;;
76576;SDS011;65441;44.748;37.600;2023-06-19T13:50:50;16.75;;;5.45;;
76576;SDS011;65441;44.748;37.600;2023-06-19T13:53:21;10.60;;;4.90;;
76576;SDS011;65441;44.748;37.600;2023-06-19T13:55:50;13.30;;;4.88;;
76576;SDS011;65441;44.748;37.600;2023-06-19T13:58:21;14.07;;;4.85;;
76576;SDS011;65441;44.748;37.600;2023-06-19T14:00:50;12.13;;;4.05;;
76576;SDS011;65441;44.748;37.600;2023-06-19T14:03:23;13.80;;;5.30;;
76576;SDS011;65441;44.748;37.600;2023-06-19T14:05:52;14.80;;;5.03;;
76576;SDS011;65441;44.748;37.600;2023-06-19T14:08:24;12.02;;;4.45;;
76576;SDS011;65441;44.748;37.600;2023-06-19T14:10:53;11.93;;;4.63;;
76576;SDS011;65441;44.748;37.600;2023-06-19T14:13:22;10.52;;;4.30;;
76576;SDS011;65441;44.748;37.600;2023-06-19T14:15:59;10.98;;;4.57;;
76576;SDS011;65441;44.748;37.600;2023-06-19T14:18:30;8.45;;;4.07;;
76576;SDS011;65441;44.748;37.600;2023-06-19T14:21:00;10.95;;;4.35;;
76576;SDS011;65441;44.748;37.600;2023-06-19T14:23:35;9.02;;;4.63;;
76576;SDS011;65441;44.748;37.600;2023-06-19T14:26:09;8.30;;;4.22;;
76576;SDS011;65441;44.748;37.600;2023-06-19T14:28:41;10.20;;;4.82;;
76576;SDS011;65441;44.748;37.600;2023-06-19T14:31:16;10.55;;;4.97;;
76576;SDS011;65441;44.748;37.600;2023-06-19T14:33:48;11.73;;;4.72;;
76576;SDS011;65441;44.748;37.600;2023-06-19T14:36:18;9.73;;;4.32;;
76576;SDS011;65441;44.748;37.600;2023-06-19T14:38:51;9.00;;;4.85;;
76576;SDS011;65441;44.748;37.600;2023-06-19T14:41:25;10.05;;;4.63;;
76576;SDS011;65441;44.748;37.600;2023-06-19T14:43:58;8.65;;;4.80;;
76576;SDS011;65441;44.748;37.600;2023-06-19T14:46:33;11.15;;;4.10;;
76576;SDS011;65441;44.748;37.600;2023-06-19T14:49:08;9.60;;;4.38;;
76576;SDS011;65441;44.748;37.600;2023-06-19T14:51:39;8.93;;;4.50;;
76576;SDS011;65441;44.748;37.600;2023-06-19T14:54:12;9.45;;;3.95;;
76576;SDS011;65441;44.748;37.600;2023-06-19T14:56:44;12.10;;;3.85;;
76576;SDS011;65441;44.748;37.600;2023-06-19T14:59:15;9.85;;;4.28;;
76576;SDS011;65441;44.748;37.600;2023-06-19T15:01:49;9.27;;;4.40;;
76576;SDS011;65441;44.748;37.600;2023-06-19T15:04:20;8.73;;;3.97;;
76576;SDS011;65441;44.748;37.600;2023-06-19T15:06:54;9.07;;;4.03;;
76576;SDS011;65441;44.748;37.600;2023-06-19T15:09:28;9.23;;;4.20;;
76576;SDS011;65441;44.748;37.600;2023-06-19T15:12:00;8.40;;;4.47;;
76576;SDS011;65441;44.748;37.600;2023-06-19T15:14:32;8.20;;;4.35;;
76576;SDS011;65441;44.748;37.600;2023-06-19T15:17:05;9.95;;;4.30;;
76576;SDS011;65441;44.748;37.600;2023-06-19T15:19:36;10.02;;;4.07;;
76576;SDS011;65441;44.748;37.600;2023-06-19T15:22:08;10.55;;;3.80;;
76576;SDS011;65441;44.748;37.600;2023-06-19T15:24:39;9.15;;;4.03;;
76576;SDS011;65441;44.748;37.600;2023-06-19T15:27:11;9.25;;;4.85;;
76576;SDS011;65441;44.748;37.600;2023-06-19T15:29:40;11.38;;;4.47;;
76576;SDS011;65441;44.748;37.600;2023-06-19T15:32:10;8.95;;;4.88;;
76576;SDS011;65441;44.748;37.600;2023-06-19T15:34:48;8.60;;;4.50;;
76576;SDS011;65441;44.748;37.600;2023-06-19T15:37:17;9.30;;;4.60;;
76576;SDS011;65441;44.748;37.600;2023-06-19T15:39:50;12.25;;;4.72;;
76576;SDS011;65441;44.748;37.600;2023-06-19T15:42:24;11.43;;;4.85;;
76576;SDS011;65441;44.748;37.600;2023-06-19T15:44:55;9.85;;;3.83;;
76576;SDS011;65441;44.748;37.600;2023-06-19T15:47:30;10.43;;;4.22;;
76576;SDS011;65441;44.748;37.600;2023-06-19T15:50:04;11.00;;;4.03;;
76576;SDS011;65441;44.748;37.600;2023-06-19T15:52:39;8.35;;;3.97;;
76576;SDS011;65441;44.748;37.600;2023-06-19T15:55:14;8.75;;;4.10;;
76576;SDS011;65441;44.748;37.600;2023-06-19T16:00:17;8.77;;;3.80;;
76576;SDS011;65441;44.748;37.600;2023-06-19T16:02:50;8.02;;;3.92;;
76576;SDS011;65441;44.748;37.600;2023-06-19T16:05:23;10.80;;;3.85;;
76576;SDS011;65441;44.748;37.600;2023-06-19T16:07:53;10.98;;;3.63;;
76576;SDS011;65441;44.748;37.600;2023-06-19T16:10:27;8.88;;;4.00;;
76576;SDS011;65441;44.748;37.600;2023-06-19T16:13:00;8.80;;;3.65;;
76576;SDS011;65441;44.748;37.600;2023-06-19T16:15:30;7.70;;;3.90;;
76576;SDS011;65441;44.748;37.600;2023-06-19T16:17:59;11.57;;;4.10;;
76576;SDS011;65441;44.748;37.600;2023-06-19T16:20:32;11.77;;;4.00;;
76576;SDS011;65441;44.748;37.600;2023-06-19T16:23:04;8.93;;;4.07;;
76576;SDS011;65441;44.748;37.600;2023-06-19T16:25:35;10.20;;;3.85;;
76576;SDS011;65441;44.748;37.600;2023-06-19T16:28:37;10.23;;;4.20;;
76576;SDS011;65441;44.748;37.600;2023-06-19T16:31:03;9.60;;;4.30;;
76576;SDS011;65441;44.748;37.600;2023-06-19T16:33:36;9.63;;;3.83;;
76576;SDS011;65441;44.748;37.600;2023-06-19T16:36:05;8.32;;;3.92;;
76576;SDS011;65441;44.748;37.600;2023-06-19T16:38:37;13.05;;;4.18;;